Morgan, Texas
Current Conditions -  °F | °C
As of 1:15 PM on Sunday 23 Nov 2014 (Local Time) from KCPT Reporting Station
Clear Clear  
Wind Chill: 75°   Ceiling: Unl
Heat Index: 75°   Visibility: 10mi
Dew Point: 41°   Wind: 22mph
Humidity: 29%   Direction: 250°WSW
Pressure: 29.44"   Gusts: 29mph
Location:  32.02°N, 97.61°W
Report Text: KCPT 231915Z AUTO 25019G25KT 10SM CLR 24/05 A2944 RMK AO2
Loading
Personal Weather Stations






























Interactive Weather Map New forecast layout! Learn more

10-Day Weather Forecast

Advertisements
Track Severe Weather on mobile